createdAt,value
2022-12-13T00:00:14.845Z,-8.83
2022-12-13T00:02:17.620Z,-8.86
2022-12-13T00:04:23.139Z,-8.78
2022-12-13T00:06:26.364Z,-8.66
2022-12-13T00:08:29.958Z,-8.67
2022-12-13T00:10:32.730Z,-8.69
2022-12-13T00:12:35.454Z,-8.65
2022-12-13T00:14:38.089Z,-8.70
2022-12-13T00:16:41.288Z,-8.69
2022-12-13T00:18:47.194Z,-8.67
2022-12-13T00:20:49.856Z,-8.64
2022-12-13T00:22:53.119Z,-8.63
2022-12-13T00:24:56.879Z,-8.66
2022-12-13T00:26:59.540Z,-8.65
2022-12-13T00:29:05.251Z,-8.69
2022-12-13T00:31:53.005Z,-8.70
2022-12-13T00:33:31.708Z,-8.68
2022-12-13T00:35:39.918Z,-8.68
2022-12-13T00:37:42.681Z,-8.71
2022-12-13T00:39:45.475Z,-8.72
2022-12-13T00:41:48.208Z,-8.76
2022-12-13T00:43:50.854Z,-8.82
2022-12-13T00:45:53.505Z,-8.81
2022-12-13T00:47:56.099Z,-8.80
2022-12-13T00:49:58.765Z,-8.84
2022-12-13T00:52:01.428Z,-8.89
2022-12-13T00:54:04.380Z,-8.92
2022-12-13T00:56:12.955Z,-8.91
2022-12-13T00:58:15.571Z,-8.96
2022-12-13T01:00:18.831Z,-8.99
2022-12-13T01:02:21.607Z,-9.01
2022-12-13T01:04:24.320Z,-9.07
2022-12-13T01:06:34.232Z,-8.98
2022-12-13T01:08:37.402Z,-8.97
2022-12-13T01:10:44.343Z,-8.99
2022-12-13T01:12:47.445Z,-9.04
2022-12-13T01:14:55.802Z,-9.08
2022-12-13T01:17:00.238Z,-9.06
2022-12-13T01:19:03.003Z,-9.05
2022-12-13T01:21:13.385Z,-9.12
2022-12-13T01:23:17.233Z,-9.14
2022-12-13T01:25:19.990Z,-9.07
2022-12-13T01:27:22.712Z,-9.09
2022-12-13T01:29:27.413Z,-9.15
2022-12-13T01:31:30.100Z,-9.11
2022-12-13T01:33:33.656Z,-9.12
2022-12-13T01:35:36.313Z,-9.08
2022-12-13T01:37:39.065Z,-9.07
2022-12-13T01:39:41.742Z,-9.10
2022-12-13T01:41:46.263Z,-9.21
2022-12-13T01:43:48.898Z,-9.25
2022-12-13T01:45:52.008Z,-9.25
2022-12-13T01:48:07.787Z,-9.24
2022-12-13T01:50:17.346Z,-9.20
2022-12-13T01:52:20.160Z,-9.17
2022-12-13T01:54:33.983Z,-9.21
2022-12-13T01:56:43.122Z,-9.23
2022-12-13T01:58:48.286Z,-9.24
2022-12-13T02:00:51.688Z,-9.19
2022-12-13T02:02:58.349Z,-9.21
2022-12-13T02:05:13.831Z,-9.29
2022-12-13T02:07:23.303Z,-9.30
2022-12-13T02:09:27.228Z,-9.32
2022-12-13T02:11:30.658Z,-9.39
2022-12-13T02:13:33.373Z,-9.31
2022-12-13T02:15:51.753Z,-9.29
2022-12-13T02:18:06.509Z,-9.21
2022-12-13T02:20:21.654Z,-9.23
2022-12-13T02:23:02.435Z,-9.23
2022-12-13T02:25:14.328Z,-9.25
2022-12-13T02:28:00.958Z,-9.20
2022-12-13T02:30:15.691Z,-9.18
2022-12-13T02:32:36.922Z,-9.19
2022-12-13T02:34:44.149Z,-9.13
2022-12-13T02:37:18.222Z,-9.18
2022-12-13T02:39:31.127Z,-9.16
2022-12-13T02:41:39.795Z,-9.20
2022-12-13T02:43:48.078Z,-9.20
2022-12-13T02:46:02.369Z,-9.19
2022-12-13T02:48:08.395Z,-9.13
2022-12-13T02:50:13.611Z,-9.13
2022-12-13T02:52:22.377Z,-9.10
2022-12-13T02:54:25.583Z,-9.09
2022-12-13T02:56:28.340Z,-9.13
2022-12-13T02:58:35.212Z,-9.14
2022-12-13T03:00:49.279Z,-9.12
2022-12-13T03:03:01.000Z,-9.22
2022-12-13T03:05:29.111Z,-9.20
2022-12-13T03:07:49.461Z,-9.16
2022-12-13T03:09:55.059Z,-9.27
2022-12-13T03:12:38.842Z,-9.28
2022-12-13T03:15:03.684Z,-9.36
2022-12-13T03:17:09.209Z,-9.25
2022-12-13T03:19:13.298Z,-9.21
2022-12-13T03:21:16.257Z,-9.18
2022-12-13T03:23:20.263Z,-9.13
2022-12-13T03:25:31.267Z,-9.17
2022-12-13T03:27:35.468Z,-9.18
2022-12-13T03:29:38.083Z,-9.18
2022-12-13T03:31:40.893Z,-9.22
2022-12-13T03:33:43.621Z,-9.24
2022-12-13T03:35:46.988Z,-9.24
2022-12-13T03:37:50.160Z,-9.29
2022-12-13T03:39:52.958Z,-9.30
2022-12-13T03:41:55.612Z,-9.22
2022-12-13T03:44:05.565Z,-9.25
2022-12-13T03:46:10.140Z,-9.23
2022-12-13T03:48:12.841Z,-9.24
2022-12-13T03:50:26.576Z,-9.16
2022-12-13T03:52:29.820Z,-9.21
2022-12-13T03:54:32.484Z,-9.13
2022-12-13T03:56:35.162Z,-9.14
2022-12-13T03:58:38.449Z,-9.11
2022-12-13T04:00:41.252Z,-9.06
2022-12-13T04:02:43.946Z,-9.06
2022-12-13T04:04:46.677Z,-9.12
2022-12-13T04:06:49.309Z,-9.15
2022-12-13T04:08:52.995Z,-9.16
2022-12-13T04:10:55.720Z,-9.16
2022-12-13T04:13:17.062Z,-9.17
2022-12-13T04:15:19.828Z,-9.15
2022-12-13T04:17:22.505Z,-9.11
2022-12-13T04:19:25.170Z,-9.09
2022-12-13T04:21:27.861Z,-9.10
2022-12-13T04:23:30.666Z,-9.12
2022-12-13T04:25:33.309Z,-9.16
2022-12-13T04:27:38.294Z,-9.21
2022-12-13T04:29:40.993Z,-9.20
2022-12-13T04:31:43.802Z,-9.20
2022-12-13T04:33:46.595Z,-9.22
2022-12-13T04:35:50.021Z,-9.21
2022-12-13T04:37:53.796Z,-9.12
2022-12-13T04:40:00.885Z,-9.10
2022-12-13T04:42:04.873Z,-9.13
2022-12-13T04:44:27.952Z,-9.05
2022-12-13T04:46:33.359Z,-9.02
2022-12-13T04:48:36.062Z,-8.93
2022-12-13T04:50:38.839Z,-8.96
2022-12-13T04:52:41.516Z,-8.96
2022-12-13T04:54:44.152Z,-8.99
2022-12-13T04:56:46.985Z,-9.02
2022-12-13T04:58:49.648Z,-8.96
2022-12-13T05:00:52.312Z,-8.92
2022-12-13T05:02:55.107Z,-8.87
2022-12-13T05:04:57.856Z,-8.84
2022-12-13T05:07:01.562Z,-8.79
2022-12-13T05:09:04.603Z,-8.78
2022-12-13T05:11:14.245Z,-8.68
2022-12-13T05:13:17.580Z,-8.61
2022-12-13T05:15:20.297Z,-8.64
2022-12-13T05:17:23.047Z,-8.61
2022-12-13T05:19:30.696Z,-8.53
2022-12-13T05:21:35.190Z,-8.44
2022-12-13T05:23:38.957Z,-8.39
2022-12-13T05:25:42.047Z,-8.42
2022-12-13T05:27:44.857Z,-8.41
2022-12-13T05:29:47.571Z,-8.43
2022-12-13T05:31:51.338Z,-8.38
2022-12-13T05:33:55.310Z,-8.38
2022-12-13T05:36:05.601Z,-8.42
2022-12-13T05:38:08.242Z,-8.44
2022-12-13T05:40:11.165Z,-8.44
2022-12-13T05:42:13.798Z,-8.46
2022-12-13T05:44:16.516Z,-8.39
2022-12-13T05:46:19.697Z,-8.44
2022-12-13T05:48:24.216Z,-8.45
2022-12-13T05:50:27.536Z,-8.47
2022-12-13T05:52:30.774Z,-8.40
2022-12-13T05:54:34.073Z,-8.41
2022-12-13T05:56:36.889Z,-8.39
2022-12-13T05:58:40.837Z,-8.16
2022-12-13T06:00:44.037Z,-8.18
2022-12-13T06:02:48.118Z,-8.20
2022-12-13T06:04:50.817Z,-8.27
2022-12-13T06:06:53.489Z,-8.23
2022-12-13T06:08:56.037Z,-8.18
2022-12-13T06:11:11.473Z,-8.16
2022-12-13T06:13:21.776Z,-8.05
2022-12-13T06:15:35.118Z,-8.03
2022-12-13T06:17:38.172Z,-8.08
2022-12-13T06:19:40.831Z,-8.00
2022-12-13T06:21:46.314Z,-7.95
2022-12-13T06:23:49.278Z,-7.80
2022-12-13T06:25:51.972Z,-7.79
2022-12-13T06:27:54.659Z,-7.84
2022-12-13T06:30:02.186Z,-7.95
2022-12-13T06:32:06.721Z,-7.89
2022-12-13T06:34:14.444Z,-7.84
2022-12-13T06:36:17.849Z,-7.87
2022-12-13T06:38:22.124Z,-7.88
2022-12-13T06:40:34.759Z,-7.97
2022-12-13T06:42:37.383Z,-8.01
2022-12-13T06:44:41.959Z,-7.96
2022-12-13T06:46:45.310Z,-7.94
2022-12-13T06:48:48.115Z,-7.81
2022-12-13T06:50:50.628Z,-7.69
2022-12-13T06:52:53.134Z,-7.62
2022-12-13T06:54:59.862Z,-7.56
2022-12-13T06:57:02.596Z,-7.51
2022-12-13T06:59:05.161Z,-7.50
2022-12-13T07:01:15.121Z,-7.51
2022-12-13T07:03:26.621Z,-7.50
2022-12-13T07:05:29.188Z,-7.55
2022-12-13T07:07:31.807Z,-7.53
2022-12-13T07:09:34.633Z,-7.48
2022-12-13T07:11:37.278Z,-7.42
2022-12-13T07:13:39.823Z,-7.36
2022-12-13T07:15:42.439Z,-7.35
2022-12-13T07:17:45.097Z,-7.32
2022-12-13T07:19:48.037Z,-7.31
2022-12-13T07:21:50.996Z,-7.29
2022-12-13T07:23:54.868Z,-7.19
2022-12-13T07:25:58.219Z,-7.13
2022-12-13T07:28:05.498Z,-7.07
2022-12-13T07:30:08.644Z,-6.99
2022-12-13T07:32:11.597Z,-6.90
2022-12-13T07:34:15.756Z,-6.88
2022-12-13T07:36:21.386Z,-6.89
2022-12-13T07:38:23.880Z,-6.99
2022-12-13T07:40:26.731Z,-7.00
2022-12-13T07:42:29.267Z,-6.94
2022-12-13T07:44:31.883Z,-6.91
2022-12-13T07:46:34.544Z,-6.89
2022-12-13T07:48:37.380Z,-6.89
2022-12-13T07:50:40.026Z,-6.86
2022-12-13T07:52:42.617Z,-6.85
2022-12-13T07:54:45.138Z,-6.99
2022-12-13T07:56:47.736Z,-6.96
2022-12-13T07:58:50.321Z,-6.99
2022-12-13T08:00:52.925Z,-7.05
2022-12-13T08:02:55.486Z,-7.03
2022-12-13T08:04:58.157Z,-7.05
2022-12-13T08:07:20.716Z,-6.90
2022-12-13T08:09:23.698Z,-6.78
2022-12-13T08:11:26.296Z,-6.74
2022-12-13T08:13:28.840Z,-6.68
2022-12-13T08:15:31.910Z,-6.61
2022-12-13T08:17:34.510Z,-6.49
2022-12-13T08:19:37.265Z,-6.45
2022-12-13T08:21:58.784Z,-6.40
2022-12-13T08:24:04.173Z,-6.30
2022-12-13T08:26:07.110Z,-6.30
2022-12-13T08:28:11.116Z,-6.21
2022-12-13T08:30:32.918Z,-6.13
2022-12-13T08:32:46.668Z,-6.10
2022-12-13T08:34:50.061Z,-6.09
2022-12-13T08:36:52.622Z,-6.10
2022-12-13T08:39:04.904Z,-6.00
2022-12-13T08:41:09.141Z,-5.98
2022-12-13T08:43:11.871Z,-5.92
2022-12-13T08:45:15.017Z,-5.94
2022-12-13T08:47:24.690Z,-5.92
2022-12-13T08:49:28.842Z,-5.85
2022-12-13T08:51:35.523Z,-5.78
2022-12-13T08:53:40.967Z,-5.75
2022-12-13T08:55:45.056Z,-5.71
2022-12-13T08:57:47.927Z,-5.62
2022-12-13T08:59:50.559Z,-5.58
2022-12-13T09:01:55.190Z,-5.51
2022-12-13T09:03:59.216Z,-5.50
2022-12-13T09:06:13.932Z,-5.46
2022-12-13T09:08:23.476Z,-5.41
2022-12-13T09:10:28.040Z,-5.37
2022-12-13T09:12:31.255Z,-5.31
2022-12-13T09:14:34.497Z,-5.28
2022-12-13T09:16:37.440Z,-5.25
2022-12-13T09:18:40.245Z,-5.23
2022-12-13T09:20:43.047Z,-5.18
2022-12-13T09:22:45.873Z,-5.21
2022-12-13T09:24:50.149Z,-5.20
2022-12-13T09:26:57.236Z,-5.26
2022-12-13T09:29:00.344Z,-5.27
2022-12-13T09:31:18.292Z,-5.27
2022-12-13T09:33:30.552Z,-5.32
2022-12-13T09:35:33.991Z,-5.29
2022-12-13T09:37:41.191Z,-5.35
2022-12-13T09:39:47.893Z,-5.39
2022-12-13T09:42:01.101Z,-5.37
2022-12-13T09:44:33.023Z,-5.39
2022-12-13T09:46:45.136Z,-5.37
2022-12-13T09:48:48.825Z,-5.44
2022-12-13T09:51:16.056Z,-5.43
2022-12-13T09:53:21.086Z,-5.37
2022-12-13T09:55:44.516Z,-5.34
2022-12-13T09:57:48.174Z,-5.32
2022-12-13T09:59:54.682Z,-5.28
2022-12-13T10:02:15.495Z,-5.21
2022-12-13T10:04:18.450Z,-5.16
2022-12-13T10:06:25.429Z,-5.14
2022-12-13T10:08:41.027Z,-5.12
2022-12-13T10:10:44.359Z,-5.10
2022-12-13T10:12:55.741Z,-5.09
2022-12-13T10:15:02.675Z,-5.05
2022-12-13T10:17:13.925Z,-5.07
2022-12-13T10:19:28.900Z,-5.10
2022-12-13T10:21:40.320Z,-5.15
2022-12-13T10:24:22.408Z,-5.15
2022-12-13T10:26:14.752Z,-5.16
2022-12-13T10:28:36.090Z,-5.23
2022-12-13T10:30:43.621Z,-5.25
2022-12-13T10:33:04.731Z,-5.27
2022-12-13T10:35:25.942Z,-5.33
2022-12-13T10:37:32.212Z,-5.42
2022-12-13T10:39:40.864Z,-5.40
2022-12-13T10:41:43.563Z,-5.43
2022-12-13T10:43:46.204Z,-5.43
2022-12-13T10:45:58.117Z,-5.45
2022-12-13T10:48:04.213Z,-5.52
2022-12-13T10:50:28.954Z,-5.62
2022-12-13T10:52:48.218Z,-5.64
2022-12-13T10:54:51.925Z,-5.66
2022-12-13T10:57:11.573Z,-5.63
2022-12-13T10:59:27.624Z,-5.67
2022-12-13T11:01:38.284Z,-5.69
2022-12-13T11:03:40.941Z,-5.72
2022-12-13T11:05:45.788Z,-5.74
2022-12-13T11:07:50.688Z,-5.76
2022-12-13T11:09:53.939Z,-5.75
2022-12-13T11:12:00.578Z,-5.70
2022-12-13T11:14:03.895Z,-5.81
2022-12-13T11:16:30.086Z,-5.84
2022-12-13T11:18:38.953Z,-5.89
2022-12-13T11:20:59.858Z,-5.88
2022-12-13T11:23:37.283Z,-5.96
2022-12-13T11:25:41.876Z,-6.04
2022-12-13T11:28:37.317Z,-5.96
2022-12-13T11:30:41.199Z,-6.04
2022-12-13T11:32:58.758Z,-6.11
2022-12-13T11:35:25.218Z,-6.25
2022-12-13T11:37:31.090Z,-6.36
2022-12-13T11:39:41.155Z,-6.32
2022-12-13T11:41:49.544Z,-6.37
2022-12-13T11:44:21.585Z,-6.42
2022-12-13T11:46:41.942Z,-6.36
2022-12-13T11:48:51.085Z,-6.48
2022-12-13T11:50:56.799Z,-6.54
2022-12-13T11:53:10.853Z,-6.59
2022-12-13T11:55:34.010Z,-6.57
2022-12-13T11:57:48.315Z,-6.61
2022-12-13T12:00:02.459Z,-6.57
2022-12-13T12:02:18.602Z,-6.67
2022-12-13T12:04:29.644Z,-6.73
2022-12-13T12:07:31.329Z,-6.69
2022-12-13T12:09:36.684Z,-6.78
2022-12-13T12:12:00.270Z,-6.77
2022-12-13T12:14:28.206Z,-6.78
2022-12-13T12:16:57.343Z,-6.86
2022-12-13T12:19:01.427Z,-6.91
2022-12-13T12:21:37.281Z,-6.78
2022-12-13T12:24:06.697Z,-6.92
2022-12-13T12:26:17.923Z,-6.89
2022-12-13T12:28:26.759Z,-6.97
2022-12-13T12:30:54.054Z,-7.11
2022-12-13T12:33:15.906Z,-7.06
2022-12-13T12:35:23.251Z,-7.14
2022-12-13T12:37:39.614Z,-7.21
2022-12-13T12:40:20.457Z,-7.46
2022-12-13T12:43:14.467Z,-7.66
2022-12-13T12:50:57.003Z,-7.88
2022-12-13T12:53:32.608Z,-7.93
2022-12-13T12:56:20.131Z,-7.99
2022-12-13T12:58:30.937Z,-8.10
2022-12-13T13:00:53.022Z,-8.10
2022-12-13T13:03:06.819Z,-8.10
2022-12-13T13:05:24.860Z,-8.14
2022-12-13T13:07:39.639Z,-8.26
2022-12-13T13:09:43.806Z,-8.38
2022-12-13T13:11:49.650Z,-8.31
2022-12-13T13:14:39.022Z,-8.30
2022-12-13T13:16:42.236Z,-8.12
2022-12-13T13:18:53.188Z,-7.99
2022-12-13T13:21:35.001Z,-7.94
2022-12-13T13:23:41.155Z,-7.93
2022-12-13T13:28:22.437Z,-7.80
2022-12-13T13:30:26.069Z,-7.75
2022-12-13T13:32:31.413Z,-7.73
2022-12-13T13:34:36.838Z,-7.74
2022-12-13T13:36:39.525Z,-7.76
2022-12-13T13:38:53.394Z,-7.75
2022-12-13T13:40:56.009Z,-7.73
2022-12-13T13:43:14.016Z,-7.70
2022-12-13T13:45:23.840Z,-7.71
2022-12-13T13:47:39.269Z,-7.83
2022-12-13T13:50:22.299Z,-7.86
2022-12-13T13:52:27.472Z,-7.97
2022-12-13T13:54:49.013Z,-7.98
2022-12-13T13:57:09.449Z,-7.94
2022-12-13T13:59:52.498Z,-7.87
2022-12-13T14:02:24.589Z,-7.77
2022-12-13T14:04:40.777Z,-7.80
2022-12-13T14:07:00.854Z,-7.67
2022-12-13T14:09:39.239Z,-7.62
2022-12-13T14:12:17.064Z,-7.73
2022-12-13T14:14:38.620Z,-7.76
2022-12-13T14:16:57.327Z,-7.73
2022-12-13T14:19:30.631Z,-7.78
2022-12-13T14:21:54.501Z,-7.74
2022-12-13T14:24:27.342Z,-7.79
2022-12-13T14:26:51.630Z,-7.82
2022-12-13T14:28:59.492Z,-7.81
2022-12-13T14:31:02.404Z,-7.86
2022-12-13T14:33:05.566Z,-7.93
2022-12-13T14:35:24.731Z,-8.08
2022-12-13T14:37:32.305Z,-8.19
2022-12-13T14:39:36.327Z,-8.19
2022-12-13T14:41:50.633Z,-8.28
2022-12-13T14:44:23.064Z,-8.32
2022-12-13T14:46:25.837Z,-8.40
2022-12-13T14:48:34.411Z,-8.55
2022-12-13T14:50:38.251Z,-8.68
2022-12-13T14:52:41.277Z,-8.77
2022-12-13T14:54:49.475Z,-8.84
2022-12-13T14:57:04.618Z,-8.93
2022-12-13T14:59:13.483Z,-9.00
2022-12-13T15:01:29.246Z,-8.94
2022-12-13T15:03:32.705Z,-8.93
2022-12-13T15:05:50.518Z,-8.89
2022-12-13T15:07:53.766Z,-8.94
2022-12-13T15:09:59.758Z,-8.91
2022-12-13T15:12:24.891Z,-8.94
2022-12-13T15:14:28.325Z,-8.91
2022-12-13T15:16:31.060Z,-8.82
2022-12-13T15:18:34.900Z,-8.70
2022-12-13T15:20:42.060Z,-8.61
2022-12-13T15:22:45.274Z,-8.46
2022-12-13T15:24:49.167Z,-8.39
2022-12-13T15:26:52.087Z,-8.18
2022-12-13T15:28:57.625Z,-8.06
2022-12-13T15:31:01.802Z,-7.97
2022-12-13T15:33:19.769Z,-7.90
2022-12-13T15:35:27.524Z,-7.86
2022-12-13T15:37:33.471Z,-7.78
2022-12-13T15:39:47.958Z,-7.78
2022-12-13T15:41:51.659Z,-7.75
2022-12-13T15:43:59.100Z,-7.77
2022-12-13T15:46:02.326Z,-7.72
2022-12-13T15:48:05.763Z,-7.65
2022-12-13T15:50:28.547Z,-7.56
2022-12-13T15:52:35.879Z,-7.51
2022-12-13T15:54:38.673Z,-7.49
2022-12-13T15:57:01.991Z,-7.54
2022-12-13T15:59:06.316Z,-7.50
2022-12-13T16:01:26.290Z,-7.51
2022-12-13T16:03:44.454Z,-7.49
2022-12-13T16:05:53.475Z,-7.48
2022-12-13T16:07:58.414Z,-7.45
2022-12-13T16:10:01.054Z,-7.48
2022-12-13T16:12:06.914Z,-7.46
2022-12-13T16:14:30.722Z,-7.41
2022-12-13T16:16:33.765Z,-7.35
2022-12-13T16:18:52.002Z,-7.38
2022-12-13T16:20:55.334Z,-7.35
2022-12-13T16:22:59.750Z,-7.33
2022-12-13T16:25:02.636Z,-7.27
2022-12-13T16:27:08.109Z,-7.31
2022-12-13T16:29:17.355Z,-7.30
2022-12-13T16:31:23.327Z,-7.38
2022-12-13T16:33:27.075Z,-7.49
2022-12-13T16:35:30.500Z,-7.42
2022-12-13T16:37:33.093Z,-7.50
2022-12-13T16:39:35.767Z,-7.61
2022-12-13T16:41:41.344Z,-7.56
2022-12-13T16:43:56.113Z,-7.61
2022-12-13T16:45:59.307Z,-7.72
2022-12-13T16:48:02.068Z,-7.79
2022-12-13T16:50:13.848Z,-7.82
2022-12-13T16:52:16.817Z,-7.90
2022-12-13T16:54:20.468Z,-7.70
2022-12-13T16:56:23.259Z,-7.65
2022-12-13T16:58:26.539Z,-7.76
2022-12-13T17:00:30.212Z,-7.72
2022-12-13T17:02:33.611Z,-7.80
2022-12-13T17:04:39.841Z,-7.86
2022-12-13T17:06:44.355Z,-7.96
2022-12-13T17:08:47.323Z,-8.06
2022-12-13T17:10:49.908Z,-8.06
2022-12-13T17:13:00.936Z,-8.13
2022-12-13T17:15:04.424Z,-8.14
2022-12-13T17:17:07.060Z,-8.10
2022-12-13T17:19:11.172Z,-8.11
2022-12-13T17:21:14.619Z,-8.10
2022-12-13T17:23:18.495Z,-8.07
2022-12-13T17:25:21.131Z,-7.95
2022-12-13T17:27:24.338Z,-8.06
2022-12-13T17:29:27.218Z,-8.11
2022-12-13T17:31:35.197Z,-8.17
2022-12-13T17:33:38.712Z,-8.16
2022-12-13T17:35:41.671Z,-8.12
2022-12-13T17:37:49.503Z,-8.04
2022-12-13T17:39:52.666Z,-8.11
2022-12-13T17:41:55.884Z,-8.13
2022-12-13T17:44:00.575Z,-8.17
2022-12-13T17:46:08.909Z,-8.19
2022-12-13T17:48:12.862Z,-8.26
2022-12-13T17:50:15.723Z,-8.18
2022-12-13T17:52:19.623Z,-8.05
2022-12-13T17:54:23.924Z,-8.10
2022-12-13T17:56:26.433Z,-8.11
2022-12-13T17:58:30.298Z,-8.12
2022-12-13T18:00:32.843Z,-8.10
2022-12-13T18:02:37.986Z,-8.12
2022-12-13T18:04:42.141Z,-8.10
2022-12-13T18:06:44.958Z,-8.20
2022-12-13T18:08:49.090Z,-8.23
2022-12-13T18:11:31.377Z,-8.21
2022-12-13T18:13:27.919Z,-8.29
2022-12-13T18:15:30.785Z,-8.21
2022-12-13T18:18:08.935Z,-8.17
2022-12-13T18:19:55.993Z,-8.25
2022-12-13T18:21:59.355Z,-8.24
2022-12-13T18:24:01.898Z,-8.24
2022-12-13T18:26:10.389Z,-8.27
2022-12-13T18:28:13.197Z,-8.32
2022-12-13T18:30:15.928Z,-8.37
2022-12-13T18:32:18.429Z,-8.38
2022-12-13T18:34:20.929Z,-8.38
2022-12-13T18:36:25.435Z,-8.32
2022-12-13T18:38:34.494Z,-8.25
2022-12-13T18:40:39.332Z,-8.28
2022-12-13T18:42:41.959Z,-8.27
2022-12-13T18:44:54.701Z,-8.19
2022-12-13T18:46:57.678Z,-8.16
2022-12-13T18:49:01.032Z,-8.21
2022-12-13T18:51:05.962Z,-8.19
2022-12-13T18:53:08.480Z,-8.23
2022-12-13T18:55:11.013Z,-8.19
2022-12-13T18:57:14.046Z,-8.12
2022-12-13T18:59:16.692Z,-8.03
2022-12-13T19:01:20.389Z,-8.15
2022-12-13T19:03:23.798Z,-8.19
2022-12-13T19:05:26.872Z,-8.20
2022-12-13T19:07:29.468Z,-8.24
2022-12-13T19:09:32.165Z,-8.15
2022-12-13T19:11:34.789Z,-8.10
2022-12-13T19:13:37.435Z,-8.27
2022-12-13T19:15:40.714Z,-8.26
2022-12-13T19:17:43.800Z,-8.33
2022-12-13T19:19:48.558Z,-8.39
2022-12-13T19:21:51.199Z,-8.42
2022-12-13T19:23:57.754Z,-8.42
2022-12-13T19:26:07.709Z,-8.38
2022-12-13T19:28:11.488Z,-8.40
2022-12-13T19:30:14.709Z,-8.37
2022-12-13T19:32:17.371Z,-8.41
2022-12-13T19:34:20.310Z,-8.47
2022-12-13T19:36:23.516Z,-8.50
2022-12-13T19:38:26.244Z,-8.57
2022-12-13T19:40:29.280Z,-8.67
2022-12-13T19:42:32.562Z,-8.60
2022-12-13T19:44:35.354Z,-8.59
2022-12-13T19:46:38.171Z,-8.45
2022-12-13T19:48:40.883Z,-8.43
2022-12-13T19:50:44.454Z,-8.46
2022-12-13T19:52:47.192Z,-8.40
2022-12-13T19:54:49.853Z,-8.50
2022-12-13T19:56:53.524Z,-8.55
2022-12-13T19:58:56.830Z,-8.57
2022-12-13T20:01:03.970Z,-8.57
2022-12-13T20:03:06.799Z,-8.46
2022-12-13T20:05:09.559Z,-8.47
2022-12-13T20:07:12.969Z,-8.38
2022-12-13T20:09:15.642Z,-8.41
2022-12-13T20:11:21.992Z,-8.38
2022-12-13T20:13:25.032Z,-8.52
2022-12-13T20:15:28.540Z,-8.55
2022-12-13T20:17:32.084Z,-8.57
2022-12-13T20:19:34.757Z,-8.61
2022-12-13T20:21:37.330Z,-8.62
2022-12-13T20:23:39.916Z,-8.63
2022-12-13T20:25:42.596Z,-8.64
2022-12-13T20:27:45.708Z,-8.80
2022-12-13T20:29:49.533Z,-8.75
2022-12-13T20:31:53.943Z,-8.74
2022-12-13T20:34:02.854Z,-8.58
2022-12-13T20:36:24.278Z,-8.57
2022-12-13T20:38:27.534Z,-8.60
2022-12-13T20:40:30.116Z,-8.58
2022-12-13T20:42:33.505Z,-8.67
2022-12-13T20:44:36.239Z,-8.76
2022-12-13T20:46:39.494Z,-8.61
2022-12-13T20:48:44.967Z,-8.54
2022-12-13T20:50:48.839Z,-8.49
2022-12-13T20:52:52.383Z,-8.51
2022-12-13T20:54:55.721Z,-8.59
2022-12-13T20:56:58.359Z,-8.50
2022-12-13T20:59:05.988Z,-8.51
2022-12-13T21:01:14.321Z,-8.53
2022-12-13T21:03:17.182Z,-8.58
2022-12-13T21:05:21.036Z,-8.54
2022-12-13T21:07:43.706Z,-8.56
2022-12-13T21:09:50.933Z,-8.54
2022-12-13T21:11:53.511Z,-8.53
2022-12-13T21:14:07.916Z,-8.56
2022-12-13T21:16:11.574Z,-8.62
2022-12-13T21:18:14.295Z,-8.65
2022-12-13T21:20:17.003Z,-8.73
2022-12-13T21:22:21.478Z,-8.75
2022-12-13T21:24:26.553Z,-8.77
2022-12-13T21:26:34.877Z,-8.83
2022-12-13T21:28:38.195Z,-8.87
2022-12-13T21:30:40.708Z,-8.93
2022-12-13T21:32:45.297Z,-8.94
2022-12-13T21:34:50.996Z,-8.97
2022-12-13T21:36:53.584Z,-9.01
2022-12-13T21:39:05.493Z,-9.09
2022-12-13T21:41:09.447Z,-9.09
2022-12-13T21:43:12.230Z,-9.10
2022-12-13T21:45:15.378Z,-9.13
2022-12-13T21:47:17.950Z,-9.10
2022-12-13T21:49:20.583Z,-9.12
2022-12-13T21:51:24.645Z,-9.17
2022-12-13T21:53:27.547Z,-9.07
2022-12-13T21:55:38.727Z,-9.08
2022-12-13T21:58:17.374Z,-9.10
2022-12-13T22:00:20.114Z,-9.12
2022-12-13T22:02:22.718Z,-9.13
2022-12-13T22:04:25.314Z,-9.11
2022-12-13T22:06:27.875Z,-9.19
2022-12-13T22:08:30.498Z,-9.23
2022-12-13T22:10:33.281Z,-9.25
2022-12-13T22:12:41.090Z,-9.25
2022-12-13T22:14:43.724Z,-9.23
2022-12-13T22:16:46.524Z,-9.21
2022-12-13T22:18:49.437Z,-9.19
2022-12-13T22:20:58.608Z,-9.09
2022-12-13T22:23:02.076Z,-9.08
2022-12-13T22:25:05.618Z,-8.96
2022-12-13T22:27:08.243Z,-9.01
2022-12-13T22:29:14.173Z,-9.02
2022-12-13T22:31:17.614Z,-9.02
2022-12-13T22:33:20.334Z,-9.07
2022-12-13T22:35:22.880Z,-9.17
2022-12-13T22:37:25.807Z,-9.32
2022-12-13T22:39:28.464Z,-9.39
2022-12-13T22:41:31.087Z,-9.45
2022-12-13T22:43:35.673Z,-9.49
2022-12-13T22:45:38.472Z,-9.59
2022-12-13T22:47:41.072Z,-9.58
2022-12-13T22:49:43.663Z,-9.64
2022-12-13T22:51:46.796Z,-9.76
2022-12-13T22:53:49.453Z,-9.76
2022-12-13T22:55:52.001Z,-9.81
2022-12-13T22:57:54.576Z,-9.87
2022-12-13T22:59:57.160Z,-9.92
2022-12-13T23:02:02.498Z,-9.91
2022-12-13T23:04:07.312Z,-9.95
2022-12-13T23:06:15.968Z,-9.97
2022-12-13T23:08:18.637Z,-10.03
2022-12-13T23:10:41.417Z,-10.05
2022-12-13T23:13:02.151Z,-10.10
2022-12-13T23:15:05.766Z,-10.16
2022-12-13T23:17:08.643Z,-10.18
2022-12-13T23:19:40.992Z,-10.17
2022-12-13T23:21:37.769Z,-10.14
2022-12-13T23:23:40.609Z,-10.11
2022-12-13T23:25:43.282Z,-10.11
2022-12-13T23:27:51.474Z,-10.08
2022-12-13T23:29:54.020Z,-10.04
2022-12-13T23:31:56.829Z,-10.07
2022-12-13T23:33:59.437Z,-10.13
2022-12-13T23:36:09.586Z,-10.18
2022-12-13T23:38:12.490Z,-10.17
2022-12-13T23:40:16.034Z,-10.19
2022-12-13T23:42:18.594Z,-10.24
2022-12-13T23:44:21.203Z,-10.22
2022-12-13T23:46:29.136Z,-10.22
2022-12-13T23:48:35.125Z,-10.22
2022-12-13T23:50:37.694Z,-10.22
2022-12-13T23:52:40.453Z,-10.22
2022-12-13T23:54:43.033Z,-10.27
2022-12-13T23:56:46.129Z,-10.27
2022-12-13T23:58:48.805Z,-10.28
